Time;durP1;ratioP1;P1;durP2;ratioP2;P2;SDS_P1;SDS_P2;PMS_P1;PMS_P2;Temp;Humidity;BMP_temperature;BMP_pressure;BME280_temperature;BME280_humidity;BME280_pressure;Samples;Min_cycle;Max_cycle;Signal;HPM_P1;HPM_P2
2022/04/01 00:00:33;;;;;;;13.80;7.07;;;3.00;99.90;;;;;;5094267;28;20060;-88
2022/04/01 00:02:59;;;;;;;11.88;6.32;;;3.00;99.90;;;;;;5098680;28;20146;-88
2022/04/01 00:05:25;;;;;;;11.82;6.30;;;3.00;99.90;;;;;;5097703;28;20020;-88
2022/04/01 00:07:50;;;;;;;13.25;6.72;;;2.90;99.90;;;;;;5097967;28;20032;-87
2022/04/01 00:10:17;;;;;;;14.57;7.47;;;2.90;99.90;;;;;;5094191;28;20031;-88
2022/04/01 00:12:45;;;;;;;13.77;7.10;;;2.90;99.90;;;;;;5093510;28;20035;-89
2022/04/01 00:15:12;;;;;;;13.57;7.82;;;2.90;99.90;;;;;;5094506;28;20020;-88
2022/04/01 00:17:38;;;;;;;18.58;7.57;;;2.90;99.90;;;;;;5093914;28;20024;-88
2022/04/01 00:20:04;;;;;;;12.48;6.88;;;2.90;99.90;;;;;;5093064;28;20024;-88
2022/04/01 00:22:30;;;;;;;13.93;6.70;;;2.90;99.90;;;;;;5076860;28;20047;-87
2022/04/01 00:24:56;;;;;;;13.02;7.38;;;2.90;99.90;;;;;;5093224;28;20032;-88
2022/04/01 00:27:22;;;;;;;10.88;6.20;;;2.90;99.90;;;;;;5093664;28;20106;-88
2022/04/01 00:29:48;;;;;;;13.93;7.30;;;2.90;99.90;;;;;;5060391;28;20055;-88
2022/04/01 00:32:14;;;;;;;10.68;6.22;;;2.80;99.90;;;;;;5097331;28;20024;-87
2022/04/01 00:34:40;;;;;;;13.10;6.75;;;2.90;99.90;;;;;;5080926;28;20028;-88
2022/04/01 00:37:06;;;;;;;10.48;6.68;;;2.80;99.90;;;;;;5096827;28;20092;-88
2022/04/01 00:39:33;;;;;;;13.07;7.38;;;2.80;99.90;;;;;;5080418;28;20027;-88
2022/04/01 00:42:02;;;;;;;13.88;6.72;;;2.80;99.90;;;;;;5063828;28;20378;-88
2022/04/01 00:44:31;;;;;;;11.43;7.35;;;2.80;99.90;;;;;;5097609;28;20016;-87
2022/04/01 00:47:08;;;;;;;12.63;7.60;;;2.80;99.90;;;;;;5097257;28;20028;-87
2022/04/01 00:49:34;;;;;;;10.10;6.22;;;2.80;99.90;;;;;;5096817;28;20032;-88
2022/04/01 00:52:12;;;;;;;9.35;6.18;;;2.80;99.90;;;;;;5096930;28;20078;-88
2022/04/01 00:54:39;;;;;;;10.48;6.05;;;2.80;99.90;;;;;;5105963;28;20052;-88
2022/04/01 00:57:06;;;;;;;9.05;6.07;;;2.80;99.90;;;;;;5093742;28;20106;-87
2022/04/01 00:59:34;;;;;;;9.52;6.47;;;2.80;99.90;;;;;;5109036;28;20102;-89
2022/04/01 01:02:01;;;;;;;11.65;7.10;;;2.70;99.90;;;;;;5099750;28;20055;-87
2022/04/01 01:04:27;;;;;;;10.30;6.60;;;2.70;99.90;;;;;;5097303;28;20039;-88
2022/04/01 01:06:56;;;;;;;10.98;6.38;;;2.70;99.90;;;;;;5098162;28;20020;-88
2022/04/01 01:09:25;;;;;;;11.30;7.07;;;2.70;99.90;;;;;;5102378;28;20028;-87
2022/04/01 01:11:52;;;;;;;10.63;7.00;;;2.70;99.90;;;;;;5088272;28;20051;-88
2022/04/01 01:14:33;;;;;;;11.55;6.75;;;2.70;99.90;;;;;;5098615;28;20020;-88
2022/04/01 01:17:00;;;;;;;11.68;7.13;;;2.70;99.90;;;;;;5099779;28;20032;-87
2022/04/01 01:19:27;;;;;;;13.35;7.75;;;2.60;99.90;;;;;;5081105;28;20035;-87
2022/04/01 01:21:55;;;;;;;15.48;8.13;;;2.70;99.90;;;;;;5081052;28;20054;-87
2022/04/01 01:24:41;;;;;;;13.43;8.30;;;2.60;99.90;;;;;;5097216;28;20107;-87
2022/04/01 01:27:09;;;;;;;12.23;7.55;;;2.60;99.90;;;;;;5097879;28;20030;-87
2022/04/01 01:29:39;;;;;;;15.35;8.52;;;2.60;99.90;;;;;;5099157;28;20020;-88
2022/04/01 01:32:09;;;;;;;14.02;8.35;;;2.60;99.90;;;;;;5104524;28;20118;-88
2022/04/01 01:34:35;;;;;;;13.10;8.18;;;2.60;99.90;;;;;;5098216;28;20373;-87
2022/04/01 01:37:02;;;;;;;15.02;8.98;;;2.50;99.90;;;;;;5097550;28;20032;-87
2022/04/01 01:39:28;;;;;;;16.85;9.43;;;2.50;99.90;;;;;;5097633;28;20020;-87
2022/04/01 01:41:56;;;;;;;14.48;8.52;;;2.50;99.90;;;;;;5063804;28;20051;-88
2022/04/01 01:44:22;;;;;;;13.65;8.73;;;2.50;99.90;;;;;;5080398;28;20031;-87
2022/04/01 01:46:50;;;;;;;13.95;8.88;;;2.50;99.90;;;;;;5097312;28;20024;-88
2022/04/01 01:49:16;;;;;;;11.68;7.90;;;2.50;99.90;;;;;;5096957;28;20023;-89
2022/04/01 01:54:49;;;;;;;19.30;8.40;;;2.50;99.90;;;;;;5116942;28;20056;-89
2022/04/01 01:57:16;;;;;;;17.13;8.50;;;2.50;99.90;;;;;;5118279;28;20031;-88
2022/04/01 01:59:43;;;;;;;14.15;7.78;;;2.40;99.90;;;;;;5120376;28;20100;-89
2022/04/01 02:02:12;;;;;;;13.75;7.70;;;2.40;99.90;;;;;;5126576;28;20038;-89
2022/04/01 02:04:39;;;;;;;15.57;8.73;;;2.40;99.90;;;;;;5117690;28;20024;-88
2022/04/01 02:07:06;;;;;;;15.55;7.28;;;2.40;99.90;;;;;;5135977;28;20035;-89
2022/04/01 02:09:32;;;;;;;11.75;7.50;;;2.40;99.90;;;;;;5134762;28;20024;-89
2022/04/01 02:11:58;;;;;;;12.00;6.70;;;2.40;99.90;;;;;;5120553;28;20108;-90
2022/04/01 02:14:26;;;;;;;10.70;6.97;;;2.40;99.90;;;;;;5139558;28;20024;-91
2022/04/01 02:16:53;;;;;;;11.60;7.10;;;2.40;99.90;;;;;;5139151;28;20020;-91
2022/04/01 02:19:22;;;;;;;14.95;7.80;;;2.50;99.90;;;;;;5138904;28;20008;-90
2022/04/01 02:21:54;;;;;;;12.18;7.28;;;2.40;99.90;;;;;;5135882;28;20478;-90
2022/04/01 02:24:21;;;;;;;14.77;8.05;;;2.40;99.90;;;;;;5135255;28;20083;-90
2022/04/01 02:26:48;;;;;;;11.50;7.57;;;2.40;99.90;;;;;;5133389;28;20007;-90
2022/04/01 02:29:15;;;;;;;12.45;7.60;;;2.40;99.90;;;;;;5119395;28;20114;-90
2022/04/01 02:31:42;;;;;;;10.43;6.50;;;2.40;99.90;;;;;;5134274;28;20024;-90
2022/04/01 02:34:08;;;;;;;13.73;7.75;;;2.40;99.90;;;;;;5133359;28;20024;-89
2022/04/01 02:36:33;;;;;;;11.02;6.75;;;2.40;99.90;;;;;;5133521;28;20023;-91
2022/04/01 02:39:01;;;;;;;17.52;7.90;;;2.40;99.90;;;;;;5130380;28;20034;-90
2022/04/01 02:41:26;;;;;;;10.15;6.97;;;2.30;99.90;;;;;;5126581;28;20034;-89
2022/04/01 02:44:08;;;;;;;17.85;7.45;;;2.30;99.90;;;;;;5124556;28;20066;-90
2022/04/01 02:46:34;;;;;;;;;;;2.30;99.90;;;;;;5128387;28;20019;-91
2022/04/01 02:49:00;;;;;;;14.65;7.05;;;2.30;99.90;;;;;;5131713;28;19915;-90
2022/04/01 02:51:26;;;;;;;14.00;7.90;;;2.30;99.90;;;;;;5135785;28;20505;-90
2022/04/01 02:53:52;;;;;;;13.52;8.27;;;2.30;99.90;;;;;;5127196;28;20024;-91
2022/04/01 02:56:18;;;;;;;11.85;7.20;;;2.30;99.90;;;;;;5100992;28;20016;-90
2022/04/01 02:58:43;;;;;;;15.82;8.50;;;2.30;99.90;;;;;;5100918;28;20011;-90
2022/04/01 03:01:09;;;;;;;10.95;7.57;;;2.20;99.90;;;;;;5084079;28;20115;-89
2022/04/01 03:03:35;;;;;;;13.00;7.85;;;2.20;99.90;;;;;;5117578;28;20380;-90
2022/04/01 03:06:00;;;;;;;14.65;8.00;;;2.30;99.90;;;;;;5116843;28;20110;-89
2022/04/01 03:08:26;;;;;;;12.95;7.70;;;2.20;99.90;;;;;;5100698;28;20016;-89
2022/04/01 03:10:53;;;;;;;11.27;7.15;;;2.20;99.90;;;;;;5116372;28;20428;-90
2022/04/01 03:13:18;;;;;;;15.13;7.95;;;2.20;99.90;;;;;;5117047;28;20020;-90
2022/04/01 03:15:44;;;;;;;12.45;7.95;;;2.20;99.90;;;;;;5108423;28;20017;-90
2022/04/01 03:18:10;;;;;;;13.35;8.35;;;2.20;99.90;;;;;;5102722;28;20028;-88
2022/04/01 03:20:37;;;;;;;15.55;8.00;;;2.30;99.90;;;;;;5082456;28;20024;-89
2022/04/01 03:23:04;;;;;;;11.70;7.72;;;2.20;99.90;;;;;;5100424;28;20031;-89
2022/04/01 03:25:33;;;;;;;13.95;8.60;;;2.20;99.90;;;;;;5103575;28;20016;-88
2022/04/01 03:28:01;;;;;;;12.20;7.60;;;2.30;99.90;;;;;;5102141;28;20020;-88
2022/04/01 03:30:27;;;;;;;12.52;6.95;;;2.20;99.90;;;;;;5100517;28;20024;-89
2022/04/01 03:32:53;;;;;;;12.95;7.93;;;2.20;99.90;;;;;;5105006;28;20103;-89
2022/04/01 03:35:19;;;;;;;12.23;7.40;;;2.20;99.90;;;;;;5099320;28;20071;-88
2022/04/01 03:37:46;;;;;;;12.32;7.55;;;2.20;99.90;;;;;;5099072;28;20028;-89
2022/04/01 03:40:16;;;;;;;13.48;7.55;;;2.20;99.90;;;;;;5098398;28;20107;-89
2022/04/01 03:42:47;;;;;;;15.25;8.20;;;2.20;99.90;;;;;;5081083;28;20510;-89
2022/04/01 03:45:14;;;;;;;14.18;8.20;;;2.20;99.90;;;;;;5080134;28;20182;-89
2022/04/01 03:48:06;;;;;;;12.50;7.45;;;2.20;99.90;;;;;;5077780;28;20078;-89
2022/04/01 03:50:33;;;;;;;11.75;7.35;;;2.20;99.90;;;;;;5094155;28;20032;-88
2022/04/01 03:53:23;;;;;;;15.60;8.27;;;2.20;99.90;;;;;;5097222;28;20463;-88
2022/04/01 03:55:51;;;;;;;14.80;8.13;;;2.20;99.90;;;;;;5115210;28;20023;-89
2022/04/01 03:58:22;;;;;;;11.85;7.28;;;2.20;99.90;;;;;;5097308;28;20020;-89
2022/04/01 04:00:50;;;;;;;13.68;8.00;;;2.20;99.90;;;;;;5114548;28;20523;-88
2022/04/01 04:03:15;;;;;;;14.38;8.05;;;2.20;99.90;;;;;;5112438;28;20016;-89
2022/04/01 04:05:45;;;;;;;13.43;8.57;;;2.10;99.90;;;;;;5137828;28;20042;-88
2022/04/01 04:08:11;;;;;;;12.03;7.37;;;2.10;99.90;;;;;;5141019;28;20054;-89
2022/04/01 04:10:38;;;;;;;12.13;8.07;;;2.10;99.90;;;;;;5092721;28;20048;-89
2022/04/01 04:13:06;;;;;;;13.43;8.13;;;2.10;99.90;;;;;;5121393;28;20023;-90
2022/04/01 04:15:41;;;;;;;12.15;7.93;;;2.10;99.90;;;;;;5118682;28;20372;-90
2022/04/01 04:18:13;;;;;;;14.18;9.00;;;2.10;99.90;;;;;;5118895;28;20088;-90
2022/04/01 04:20:50;;;;;;;12.18;7.70;;;2.10;99.90;;;;;;5118538;28;20042;-91
2022/04/01 04:23:37;;;;;;;12.95;8.25;;;2.10;99.90;;;;;;5118751;28;20027;-90
2022/04/01 04:26:15;;;;;;;15.80;8.05;;;2.10;99.90;;;;;;5118596;28;20469;-90
2022/04/01 04:28:48;;;;;;;16.17;8.10;;;2.10;99.90;;;;;;5118830;28;20353;-90
2022/04/01 04:31:14;;;;;;;12.45;8.02;;;2.10;99.90;;;;;;5118392;28;20032;-90
2022/04/01 04:33:45;;;;;;;11.95;6.43;;;2.10;99.90;;;;;;5118511;28;20051;-90
2022/04/01 04:36:11;;;;;;;;;;;2.10;99.90;;;;;;5118908;28;20022;-89
2022/04/01 04:38:40;;;;;;;11.13;6.30;;;2.10;99.90;;;;;;5117961;28;19910;-90
2022/04/01 04:41:10;;;;;;;11.07;6.72;;;2.10;99.90;;;;;;5119483;27;20054;-90
2022/04/01 04:43:44;;;;;;;11.68;7.00;;;2.00;99.90;;;;;;5118318;28;20463;-90
2022/04/01 04:46:10;;;;;;;10.95;6.55;;;2.00;99.90;;;;;;5118948;28;20461;-89
2022/04/01 04:48:39;;;;;;;10.52;7.07;;;2.00;99.90;;;;;;5117974;28;20066;-89
2022/04/01 04:51:06;;;;;;;10.00;6.35;;;2.10;99.90;;;;;;5118119;28;20027;-89
2022/04/01 04:53:36;;;;;;;10.48;6.05;;;2.00;99.90;;;;;;5109663;28;20480;-91
2022/04/01 04:56:04;;;;;;;11.50;5.90;;;2.00;99.90;;;;;;5082428;28;20458;-90
2022/04/01 04:58:56;;;;;;;11.75;6.20;;;2.00;99.90;;;;;;5096527;28;20020;-89
2022/04/01 05:01:39;;;;;;;9.82;6.10;;;2.00;99.90;;;;;;5074125;28;20139;-90
2022/04/01 05:04:30;;;;;;;9.45;5.90;;;2.00;99.90;;;;;;5096867;28;20032;-90
2022/04/01 05:07:07;;;;;;;14.68;6.13;;;2.00;99.90;;;;;;5049875;28;20024;-90
2022/04/01 05:10:02;;;;;;;10.50;6.35;;;2.00;99.90;;;;;;5096842;28;20031;-91
2022/04/01 05:12:39;;;;;;;12.98;6.32;;;2.00;99.90;;;;;;5096921;28;20473;-91
2022/04/01 05:15:11;;;;;;;11.90;6.60;;;2.00;99.90;;;;;;5097274;28;20031;-90
2022/04/01 05:17:57;;;;;;;8.68;5.57;;;2.00;99.90;;;;;;5104836;28;20031;-88
2022/04/01 05:20:28;;;;;;;12.10;6.25;;;2.00;99.90;;;;;;5081231;28;20028;-89
2022/04/01 05:23:14;;;;;;;10.13;6.13;;;2.00;99.90;;;;;;5096451;28;20053;-89
2022/04/01 05:25:55;;;;;;;10.85;5.43;;;2.00;99.90;;;;;;5096618;28;20035;-92
2022/04/01 05:28:25;;;;;;;9.70;5.25;;;1.90;99.90;;;;;;5096866;28;20020;-90
2022/04/01 05:31:04;;;;;;;11.88;5.75;;;1.90;99.90;;;;;;5096545;28;20375;-89
2022/04/01 05:33:47;;;;;;;10.32;5.55;;;1.90;99.90;;;;;;5096775;28;20023;-89
2022/04/01 05:36:16;;;;;;;10.90;5.72;;;1.90;99.90;;;;;;5098099;28;20031;-89
2022/04/01 05:38:43;;;;;;;9.45;5.40;;;1.90;99.90;;;;;;5080289;28;20027;-89
2022/04/01 05:41:11;;;;;;;12.75;6.45;;;1.90;99.90;;;;;;5080135;28;20032;-89
2022/04/01 05:43:38;;;;;;;10.48;5.78;;;1.90;99.90;;;;;;5097935;28;20024;-89
2022/04/01 05:46:05;;;;;;;10.15;5.65;;;1.90;99.90;;;;;;5098425;28;20024;-90
2022/04/01 05:48:36;;;;;;;9.90;5.70;;;1.90;99.90;;;;;;5080060;28;20038;-88
2022/04/01 05:51:04;;;;;;;9.00;4.90;;;1.90;99.90;;;;;;5081809;28;20028;-89
2022/04/01 05:53:34;;;;;;;8.77;4.85;;;1.90;99.90;;;;;;5081713;28;20056;-91
2022/04/01 05:56:01;;;;;;;8.90;4.80;;;1.90;99.90;;;;;;5105027;28;20052;-89
2022/04/01 05:58:27;;;;;;;8.68;5.15;;;1.90;99.90;;;;;;5107810;28;20055;-91
2022/04/01 06:01:19;;;;;;;12.55;5.43;;;1.90;99.90;;;;;;5107619;28;20096;-89
2022/04/01 06:04:23;;;;;;;10.02;5.85;;;1.90;99.90;;;;;;5099569;28;20032;-90
2022/04/01 06:06:51;;;;;;;8.18;4.70;;;1.90;99.90;;;;;;5051481;28;20036;-90
2022/04/01 06:09:42;;;;;;;9.23;4.85;;;1.90;99.90;;;;;;5097708;28;20032;-90
2022/04/01 06:12:28;;;;;;;10.55;5.50;;;1.90;99.90;;;;;;5097214;28;20127;-90
2022/04/01 06:14:58;;;;;;;13.13;5.60;;;1.90;99.90;;;;;;5092215;28;20068;-92
2022/04/01 06:17:51;;;;;;;10.68;5.07;;;1.90;99.90;;;;;;5089391;28;20037;-88
2022/04/01 06:20:20;;;;;;;8.93;5.10;;;1.90;99.90;;;;;;5084232;28;20048;-90
2022/04/01 06:22:55;;;;;;;9.20;4.95;;;1.90;99.90;;;;;;5080459;28;20031;-90
2022/04/01 06:25:30;;;;;;;10.63;5.13;;;1.90;99.90;;;;;;5079302;28;20021;-90
2022/04/01 06:28:15;;;;;;;10.02;4.95;;;1.90;99.90;;;;;;5086421;28;20040;-90
2022/04/01 06:30:47;;;;;;;9.15;4.93;;;1.90;99.90;;;;;;5078472;28;20024;-89
2022/04/01 06:33:33;;;;;;;11.82;5.60;;;1.90;99.90;;;;;;5062239;28;20094;-89
2022/04/01 06:36:06;;;;;;;10.40;5.00;;;1.90;99.90;;;;;;5065952;28;20028;-91
2022/04/01 06:38:45;;;;;;;11.65;5.28;;;2.00;99.90;;;;;;5080261;28;20028;-88
2022/04/01 06:41:23;;;;;;;11.90;5.43;;;2.00;99.90;;;;;;5097886;28;20028;-89
2022/04/01 06:43:49;;;;;;;8.80;5.22;;;1.90;99.90;;;;;;5097123;28;20028;-88
2022/04/01 06:46:15;;;;;;;11.88;5.13;;;2.00;99.90;;;;;;5097623;28;20088;-89
2022/04/01 06:48:41;;;;;;;11.73;4.82;;;1.90;99.90;;;;;;5100653;28;20091;-90
2022/04/01 06:51:08;;;;;;;8.00;4.28;;;1.90;99.90;;;;;;5099254;28;20124;-89
2022/04/01 06:53:37;;;;;;;12.15;5.18;;;1.90;99.90;;;;;;5102575;28;20456;-88
2022/04/01 06:56:04;;;;;;;7.53;4.38;;;1.90;99.90;;;;;;5117419;28;20027;-89
2022/04/01 06:58:30;;;;;;;12.85;5.50;;;1.90;99.90;;;;;;5117687;28;20487;-91
2022/04/01 07:00:57;;;;;;;13.77;5.57;;;2.00;99.90;;;;;;5102184;28;20038;-89
2022/04/01 07:03:26;;;;;;;8.93;5.05;;;2.00;99.90;;;;;;5120660;28;20062;-90
2022/04/01 07:05:51;;;;;;;11.63;5.20;;;2.00;99.90;;;;;;5101455;28;20020;-90
2022/04/01 07:08:19;;;;;;;13.85;5.45;;;2.00;99.90;;;;;;5118853;28;20030;-91
2022/04/01 07:10:48;;;;;;;10.85;5.72;;;2.00;99.90;;;;;;5117502;28;20032;-90
2022/04/01 07:13:14;;;;;;;12.15;5.40;;;2.00;99.90;;;;;;5117965;28;20173;-91
2022/04/01 07:15:41;;;;;;;11.20;5.32;;;2.00;99.90;;;;;;5117669;28;20031;-90
2022/04/01 07:18:07;;;;;;;9.90;5.05;;;2.00;99.90;;;;;;5100956;28;20024;-87
2022/04/01 07:20:33;;;;;;;9.95;4.68;;;2.10;99.90;;;;;;5113693;28;20027;-88
2022/04/01 07:22:59;;;;;;;9.27;5.28;;;2.10;99.90;;;;;;5114629;28;20027;-89
2022/04/01 07:25:25;;;;;;;10.18;5.40;;;2.10;99.90;;;;;;5114362;28;20026;-90
2022/04/01 07:27:52;;;;;;;10.85;5.18;;;2.10;99.90;;;;;;5115560;28;20357;-89
2022/04/01 07:30:17;;;;;;;11.55;4.82;;;2.10;99.90;;;;;;5114513;28;20107;-88
2022/04/01 07:32:44;;;;;;;9.02;5.03;;;2.10;99.90;;;;;;5113921;28;20055;-89
2022/04/01 07:35:13;;;;;;;9.40;4.70;;;2.10;99.90;;;;;;5114086;28;20023;-88
2022/04/01 07:37:39;;;;;;;11.30;5.05;;;2.10;99.90;;;;;;5113900;28;20020;-89
2022/04/01 07:40:08;;;;;;;13.32;5.03;;;2.10;99.90;;;;;;5114433;28;20383;-93
2022/04/01 07:42:35;;;;;;;8.88;5.07;;;2.10;99.90;;;;;;5113964;28;20015;-90
2022/04/01 07:45:06;;;;;;;7.82;4.30;;;2.10;99.90;;;;;;5114767;28;20028;-90
2022/04/01 07:47:37;;;;;;;8.07;4.55;;;2.10;99.90;;;;;;5097417;28;20099;-92
2022/04/01 07:50:05;;;;;;;11.00;4.32;;;2.20;99.90;;;;;;5113558;28;20498;-89
2022/04/01 07:52:32;;;;;;;7.40;4.35;;;2.20;99.90;;;;;;5114305;28;20026;-89
2022/04/01 07:54:58;;;;;;;7.82;4.00;;;2.20;99.90;;;;;;5132222;28;20047;-89
2022/04/01 07:57:24;;;;;;;10.70;4.38;;;2.20;99.90;;;;;;5118030;28;20028;-89
2022/04/01 07:59:50;;;;;;;9.95;4.00;;;2.20;99.90;;;;;;5117508;28;20478;-89
2022/04/01 08:02:17;;;;;;;6.50;3.60;;;2.20;99.90;;;;;;5117789;28;20035;-89
2022/04/01 08:04:43;;;;;;;7.63;3.65;;;2.20;99.90;;;;;;5117694;28;20115;-88
2022/04/01 08:07:09;;;;;;;8.38;3.60;;;2.20;99.90;;;;;;5117242;28;20076;-89
2022/04/01 08:09:35;;;;;;;6.85;3.50;;;2.30;99.90;;;;;;5117170;28;20019;-88
2022/04/01 08:12:04;;;;;;;6.82;3.35;;;2.30;99.90;;;;;;5135630;28;20034;-88
2022/04/01 08:14:29;;;;;;;11.02;3.47;;;2.30;99.90;;;;;;5117206;28;20047;-88
2022/04/01 08:16:56;;;;;;;6.93;3.30;;;2.40;99.90;;;;;;5099907;28;20104;-88
2022/04/01 08:19:22;;;;;;;5.63;3.10;;;2.40;99.90;;;;;;5117653;28;20027;-88
2022/04/01 08:21:49;;;;;;;6.00;3.38;;;2.40;99.90;;;;;;5120134;28;20026;-88
2022/04/01 08:24:16;;;;;;;5.47;2.70;;;2.40;99.90;;;;;;5114666;28;20027;-88
2022/04/01 08:26:43;;;;;;;6.05;2.70;;;2.40;99.90;;;;;;5119931;28;20076;-88
2022/04/01 08:29:08;;;;;;;4.15;2.33;;;2.40;99.90;;;;;;5117966;28;20020;-89
2022/04/01 08:31:37;;;;;;;5.93;2.78;;;2.50;99.90;;;;;;5120545;28;20030;-91
2022/04/01 08:34:03;;;;;;;4.88;2.33;;;2.50;99.90;;;;;;5118600;28;20126;-90
2022/04/01 08:36:29;;;;;;;7.85;2.88;;;2.50;99.90;;;;;;5129695;28;20041;-89
2022/04/01 08:38:55;;;;;;;4.70;2.08;;;2.50;99.90;;;;;;5155386;28;20051;-89
2022/04/01 08:41:22;;;;;;;4.50;2.10;;;2.50;99.90;;;;;;5118678;28;20034;-89
2022/04/01 08:43:49;;;;;;;5.13;2.20;;;2.50;99.90;;;;;;5105301;28;20122;-88
2022/04/01 08:46:15;;;;;;;4.15;2.00;;;2.50;99.90;;;;;;5089248;28;20032;-89
2022/04/01 08:48:43;;;;;;;7.53;2.00;;;2.50;99.90;;;;;;5084247;28;20101;-88
2022/04/01 08:51:10;;;;;;;7.55;2.58;;;2.50;99.90;;;;;;5115939;28;20024;-88
2022/04/01 08:53:41;;;;;;;4.20;2.40;;;2.50;99.90;;;;;;5118292;28;20498;-89
2022/04/01 08:56:08;;;;;;;3.72;2.00;;;2.60;99.90;;;;;;5100131;28;20095;-89
2022/04/01 08:58:35;;;;;;;4.03;2.33;;;2.60;99.90;;;;;;5083183;28;20127;-89
2022/04/01 09:01:02;;;;;;;5.10;2.10;;;2.60;99.90;;;;;;5118219;28;20460;-88
2022/04/01 09:03:29;;;;;;;4.47;2.10;;;2.60;99.90;;;;;;5100532;28;20083;-88
2022/04/01 09:05:58;;;;;;;6.88;2.67;;;2.60;99.90;;;;;;5099773;28;20031;-89
2022/04/01 09:08:27;;;;;;;3.90;2.20;;;2.60;99.90;;;;;;5099467;28;20023;-90
2022/04/01 09:11:08;;;;;;;4.22;1.88;;;2.70;99.90;;;;;;5100254;28;20105;-91
2022/04/01 09:13:49;;;;;;;5.32;2.30;;;2.70;99.90;;;;;;5100573;28;20027;-90
2022/04/01 09:16:25;;;;;;;3.92;2.53;;;2.70;99.90;;;;;;5100143;28;20022;-91
2022/04/01 09:18:59;;;;;;;5.20;2.53;;;2.70;99.90;;;;;;5100522;28;20054;-91
2022/04/01 09:21:29;;;;;;;7.07;3.35;;;2.80;99.90;;;;;;5117381;28;20020;-90
2022/04/01 09:23:56;;;;;;;5.80;2.70;;;2.80;99.90;;;;;;5099692;28;20024;-89
2022/04/01 09:26:35;;;;;;;6.72;2.92;;;2.80;99.90;;;;;;5099750;28;20345;-89
2022/04/01 09:29:04;;;;;;;5.63;3.30;;;2.90;99.90;;;;;;5099821;28;20030;-89
2022/04/01 09:31:38;;;;;;;6.32;3.10;;;2.90;99.90;;;;;;5099541;28;20117;-88
2022/04/01 09:34:10;;;;;;;6.53;3.28;;;3.00;99.90;;;;;;5099054;28;20050;-88
2022/04/01 09:36:37;;;;;;;6.53;3.60;;;3.00;99.90;;;;;;5099034;28;20065;-89
2022/04/01 09:39:06;;;;;;;9.23;3.42;;;3.10;99.90;;;;;;5065693;28;20043;-88
2022/04/01 09:41:37;;;;;;;5.65;3.13;;;3.10;99.90;;;;;;5099002;28;20114;-89
2022/04/01 09:44:16;;;;;;;6.20;3.13;;;3.20;99.90;;;;;;5117418;28;20119;-89
2022/04/01 09:46:44;;;;;;;8.77;3.05;;;3.20;99.90;;;;;;5099758;28;20051;-87
2022/04/01 09:49:12;;;;;;;5.95;3.70;;;3.20;99.90;;;;;;5098668;28;20486;-87
2022/04/01 09:51:42;;;;;;;8.88;3.50;;;3.20;99.90;;;;;;5116326;28;20468;-87
2022/04/01 09:54:07;;;;;;;6.70;3.40;;;3.30;99.90;;;;;;5098112;28;20436;-88
2022/04/01 09:56:45;;;;;;;6.80;3.65;;;3.30;99.90;;;;;;5098614;28;20058;-89
2022/04/01 09:59:13;;;;;;;7.22;3.95;;;3.30;99.90;;;;;;5116803;28;20026;-88
2022/04/01 10:01:41;;;;;;;6.40;4.05;;;3.40;99.90;;;;;;5117124;28;20557;-88
2022/04/01 10:04:08;;;;;;;8.40;4.22;;;3.40;99.90;;;;;;5098116;28;20024;-89
2022/04/01 10:06:36;;;;;;;7.18;3.70;;;3.50;99.90;;;;;;5098422;28;20027;-89
2022/04/01 10:09:08;;;;;;;6.70;4.55;;;3.50;99.90;;;;;;5098330;28;20088;-87
2022/04/01 10:11:36;;;;;;;9.25;4.25;;;3.60;99.90;;;;;;5098474;28;20063;-89
2022/04/01 10:14:14;;;;;;;7.72;4.05;;;3.60;99.90;;;;;;5081613;28;20038;-89
2022/04/01 10:16:43;;;;;;;9.50;3.90;;;3.70;99.90;;;;;;5115707;27;20016;-88
2022/04/01 10:19:12;;;;;;;7.82;3.47;;;3.70;99.90;;;;;;5138091;27;20020;-89
2022/04/01 10:21:41;;;;;;;5.78;3.90;;;3.70;99.90;;;;;;5138081;27;20024;-88
2022/04/01 10:24:33;;;;;;;8.48;3.58;;;3.70;99.90;;;;;;5122155;27;20035;-87
2022/04/01 10:27:09;;;;;;;9.23;3.95;;;3.80;99.90;;;;;;5113945;27;20027;-89
2022/04/01 10:29:35;;;;;;;7.20;4.20;;;3.80;99.90;;;;;;5121003;27;20037;-89
2022/04/01 10:32:23;;;;;;;9.52;4.00;;;3.90;99.90;;;;;;5121594;27;20035;-89
2022/04/01 10:34:50;;;;;;;7.88;4.30;;;3.90;99.90;;;;;;5152934;27;20022;-90
2022/04/01 10:37:17;;;;;;;8.73;4.80;;;4.00;99.90;;;;;;5130716;27;20019;-89
2022/04/01 10:40:29;;;;;;;7.07;4.60;;;4.00;99.90;;;;;;5138548;27;20515;-88
2022/04/01 10:43:08;;;;;;;;;;;4.10;99.90;;;;;;5122564;27;20073;-88
2022/04/01 10:45:34;;;;;;;8.90;5.10;;;4.10;99.90;;;;;;5130529;27;19927;-88
2022/04/01 10:51:37;;;;;;;10.40;5.20;;;4.10;99.90;;;;;;5121761;27;20042;-89
2022/04/01 10:54:13;;;;;;;8.75;4.72;;;4.10;99.90;;;;;;5117803;27;20078;-88
2022/04/01 10:56:40;;;;;;;9.43;4.57;;;4.10;99.90;;;;;;5118562;27;20023;-89
2022/04/01 10:59:15;;;;;;;7.90;4.70;;;4.20;99.90;;;;;;5120829;27;20019;-85
2022/04/01 11:01:52;;;;;;;9.63;4.70;;;4.20;99.90;;;;;;5118815;27;20057;-87
2022/04/01 11:04:18;;;;;;;7.47;4.25;;;4.20;99.90;;;;;;5136129;27;20027;-87
2022/04/01 11:06:58;;;;;;;8.13;5.00;;;4.20;99.90;;;;;;5136436;27;20522;-88
2022/04/01 11:09:37;;;;;;;7.45;4.68;;;4.20;99.90;;;;;;5117465;27;20022;-88
2022/04/01 11:12:19;;;;;;;8.40;5.45;;;4.30;99.90;;;;;;5118484;27;20158;-88
2022/04/01 11:14:56;;;;;;;7.80;4.97;;;4.30;99.90;;;;;;5121180;27;20467;-87
2022/04/01 11:17:49;;;;;;;8.10;4.28;;;4.40;99.90;;;;;;5118810;27;20122;-89
2022/04/01 11:20:32;;;;;;;8.70;4.43;;;4.40;99.90;;;;;;5122080;27;20072;-89
2022/04/01 11:23:00;;;;;;;6.30;4.30;;;4.40;99.90;;;;;;5117342;27;20026;-87
2022/04/01 11:25:31;;;;;;;8.20;4.28;;;4.40;99.90;;;;;;5135793;27;20030;-88
2022/04/01 11:27:56;;;;;;;6.43;4.20;;;4.40;99.90;;;;;;5117210;27;20027;-88
2022/04/01 11:30:32;;;;;;;9.68;4.65;;;4.40;99.90;;;;;;5135738;27;20098;-87
2022/04/01 11:33:10;;;;;;;7.28;4.20;;;4.40;99.90;;;;;;5100360;27;20023;-87
2022/04/01 11:35:39;;;;;;;7.93;4.90;;;4.40;99.90;;;;;;5116793;27;20041;-87
2022/04/01 11:38:07;;;;;;;7.93;4.20;;;4.50;99.90;;;;;;5116646;27;20076;-88
2022/04/01 11:40:36;;;;;;;9.98;4.78;;;4.50;99.90;;;;;;5116758;27;20027;-88
2022/04/01 11:43:07;;;;;;;7.57;4.93;;;4.50;99.90;;;;;;5116729;27;20428;-87
2022/04/01 11:45:36;;;;;;;7.18;4.50;;;4.50;99.90;;;;;;5134746;27;20144;-87
2022/04/01 11:48:17;;;;;;;8.07;5.45;;;4.50;99.90;;;;;;5116368;28;20383;-87
2022/04/01 11:50:48;;;;;;;8.63;4.73;;;4.50;99.90;;;;;;5116444;28;20019;-87
2022/04/01 11:53:22;;;;;;;7.70;5.18;;;4.50;99.90;;;;;;5115838;28;20023;-87
2022/04/01 11:55:49;;;;;;;10.18;5.40;;;4.60;99.90;;;;;;5134774;28;20020;-87
2022/04/01 11:58:15;;;;;;;9.02;5.47;;;4.60;99.90;;;;;;5116841;28;20024;-88
2022/04/01 12:00:41;;;;;;;10.63;5.78;;;4.60;99.90;;;;;;5116743;28;20023;-87
2022/04/01 12:03:09;;;;;;;9.48;5.30;;;4.60;99.90;;;;;;5116742;28;20146;-87
2022/04/01 12:05:35;;;;;;;10.65;4.93;;;4.60;99.90;;;;;;5116679;28;20027;-87
2022/04/01 12:11:00;;;;;;;9.85;6.38;;;4.60;99.90;;;;;;5119993;28;20072;-87
2022/04/01 12:13:28;;;;;;;7.60;5.13;;;4.60;99.90;;;;;;5116807;28;20030;-88
2022/04/01 12:15:56;;;;;;;7.55;5.05;;;4.70;99.90;;;;;;5116591;28;20027;-86
2022/04/01 12:18:28;;;;;;;8.52;5.20;;;4.80;99.90;;;;;;5082935;28;20420;-88
2022/04/01 12:20:58;;;;;;;8.80;5.50;;;4.80;99.90;;;;;;5116417;28;20034;-85
2022/04/01 12:23:27;;;;;;;9.13;5.70;;;4.80;99.90;;;;;;5116101;28;20027;-86
2022/04/01 12:25:54;;;;;;;9.02;5.80;;;4.90;99.90;;;;;;5116516;27;20070;-87
2022/04/01 12:28:26;;;;;;;11.18;5.95;;;4.90;99.90;;;;;;5120178;27;20031;-87
2022/04/01 12:30:55;;;;;;;9.75;5.72;;;4.90;99.90;;;;;;5138172;27;20091;-86
2022/04/01 12:33:28;;;;;;;9.23;5.85;;;4.90;99.90;;;;;;5120696;27;20522;-87
2022/04/01 12:36:07;;;;;;;9.15;6.00;;;4.90;99.90;;;;;;5121328;27;20030;-87
2022/04/01 12:38:36;;;;;;;9.50;5.53;;;4.90;99.90;;;;;;5119997;27;20090;-87
2022/04/01 12:41:04;;;;;;;9.80;6.20;;;4.90;99.90;;;;;;5119692;27;20023;-87
2022/04/01 12:43:38;;;;;;;9.45;5.55;;;4.90;99.90;;;;;;5120131;27;20031;-87
2022/04/01 12:46:15;;;;;;;7.72;4.95;;;4.90;99.90;;;;;;5120463;27;20015;-86
2022/04/01 12:48:57;;;;;;;8.82;6.05;;;4.90;99.90;;;;;;5137588;27;20023;-87
2022/04/01 12:51:35;;;;;;;9.68;6.40;;;4.90;99.90;;;;;;5108794;28;20062;-88
2022/04/01 12:54:05;;;;;;;8.43;4.95;;;5.00;99.90;;;;;;5117531;28;20059;-88
2022/04/01 12:56:33;;;;;;;10.88;4.97;;;5.00;99.90;;;;;;5102049;27;20019;-87
2022/04/01 12:59:06;;;;;;;8.35;5.68;;;5.00;99.90;;;;;;5119564;27;20030;-87
2022/04/01 13:01:34;;;;;;;12.95;5.68;;;5.00;99.90;;;;;;5119272;27;20027;-87
2022/04/01 13:04:00;;;;;;;7.70;5.00;;;5.00;99.90;;;;;;5119651;27;20030;-87
2022/04/01 13:06:29;;;;;;;9.43;5.60;;;5.00;99.90;;;;;;5119807;27;20019;-86
2022/04/01 13:09:09;;;;;;;8.90;5.45;;;5.00;99.90;;;;;;5120019;27;20036;-86
2022/04/01 13:11:36;;;;;;;9.60;5.75;;;5.00;99.90;;;;;;5119594;27;20126;-86
2022/04/01 13:14:03;;;;;;;9.95;5.20;;;5.00;99.90;;;;;;5137508;27;20462;-86
2022/04/01 13:16:40;;;;;;;8.32;5.57;;;5.00;99.90;;;;;;5101898;27;20119;-86
2022/04/01 13:19:18;;;;;;;8.90;5.55;;;5.10;99.90;;;;;;5119293;27;20043;-86